sensor_id;sensor_type;location;lat;lon;timestamp;P1;durP1;ratioP1;P2;durP2;ratioP2
14396;SDS011;50653;0.000;0.000;2022-08-06T00:02:04;3.67;;;3.50;;
14396;SDS011;50653;0.000;0.000;2022-08-06T00:04:30;5.03;;;3.63;;
14396;SDS011;50653;0.000;0.000;2022-08-06T00:06:56;4.17;;;3.97;;
14396;SDS011;50653;0.000;0.000;2022-08-06T00:09:21;4.90;;;4.70;;
14396;SDS011;50653;0.000;0.000;2022-08-06T00:11:47;6.97;;;6.47;;
14396;SDS011;50653;0.000;0.000;2022-08-06T00:14:13;4.50;;;4.30;;
14396;SDS011;50653;0.000;0.000;2022-08-06T00:16:39;5.10;;;4.67;;
14396;SDS011;50653;0.000;0.000;2022-08-06T00:19:04;3.90;;;3.70;;
14396;SDS011;50653;0.000;0.000;2022-08-06T00:21:30;8.40;;;4.27;;
14396;SDS011;50653;0.000;0.000;2022-08-06T00:23:56;3.70;;;3.50;;
14396;SDS011;50653;0.000;0.000;2022-08-06T00:26:22;4.50;;;4.10;;
14396;SDS011;50653;0.000;0.000;2022-08-06T00:28:49;4.10;;;3.80;;
14396;SDS011;50653;0.000;0.000;2022-08-06T00:31:15;3.87;;;3.67;;
14396;SDS011;50653;0.000;0.000;2022-08-06T00:33:41;3.50;;;3.40;;
14396;SDS011;50653;0.000;0.000;2022-08-06T00:36:06;4.23;;;3.70;;
14396;SDS011;50653;0.000;0.000;2022-08-06T00:38:33;4.13;;;3.93;;
14396;SDS011;50653;0.000;0.000;2022-08-06T00:40:58;4.23;;;4.03;;
14396;SDS011;50653;0.000;0.000;2022-08-06T00:43:25;4.17;;;3.87;;
14396;SDS011;50653;0.000;0.000;2022-08-06T00:45:51;4.30;;;4.10;;
14396;SDS011;50653;0.000;0.000;2022-08-06T00:48:17;3.80;;;3.60;;
14396;SDS011;50653;0.000;0.000;2022-08-06T00:50:42;3.83;;;3.57;;
14396;SDS011;50653;0.000;0.000;2022-08-06T00:53:08;4.40;;;4.10;;
14396;SDS011;50653;0.000;0.000;2022-08-06T00:55:33;4.17;;;3.93;;
14396;SDS011;50653;0.000;0.000;2022-08-06T00:57:59;4.07;;;3.70;;
14396;SDS011;50653;0.000;0.000;2022-08-06T01:00:25;3.00;;;2.90;;
14396;SDS011;50653;0.000;0.000;2022-08-06T01:02:51;2.97;;;2.77;;
14396;SDS011;50653;0.000;0.000;2022-08-06T01:05:16;3.60;;;3.50;;
14396;SDS011;50653;0.000;0.000;2022-08-06T01:07:42;3.67;;;3.47;;
14396;SDS011;50653;0.000;0.000;2022-08-06T01:10:08;2.87;;;2.77;;
14396;SDS011;50653;0.000;0.000;2022-08-06T01:12:34;3.40;;;3.30;;
14396;SDS011;50653;0.000;0.000;2022-08-06T01:15:00;3.73;;;3.60;;
14396;SDS011;50653;0.000;0.000;2022-08-06T01:17:27;3.83;;;3.53;;
14396;SDS011;50653;0.000;0.000;2022-08-06T01:23:07;3.53;;;3.33;;
14396;SDS011;50653;0.000;0.000;2022-08-06T01:28:56;4.40;;;4.00;;
14396;SDS011;50653;0.000;0.000;2022-08-06T01:31:41;4.10;;;3.90;;
14396;SDS011;50653;0.000;0.000;2022-08-06T01:34:25;3.10;;;2.83;;
14396;SDS011;50653;0.000;0.000;2022-08-06T01:39:46;3.87;;;3.67;;
14396;SDS011;50653;0.000;0.000;2022-08-06T01:42:17;4.10;;;3.90;;
14396;SDS011;50653;0.000;0.000;2022-08-06T01:44:46;4.37;;;3.30;;
14396;SDS011;50653;0.000;0.000;2022-08-06T01:47:16;7.73;;;3.63;;
14396;SDS011;50653;0.000;0.000;2022-08-06T01:49:48;3.33;;;3.13;;
14396;SDS011;50653;0.000;0.000;2022-08-06T01:52:15;4.00;;;3.63;;
14396;SDS011;50653;0.000;0.000;2022-08-06T01:54:44;3.73;;;3.47;;
14396;SDS011;50653;0.000;0.000;2022-08-06T01:57:12;3.67;;;3.40;;
14396;SDS011;50653;0.000;0.000;2022-08-06T01:59:42;3.17;;;3.07;;
14396;SDS011;50653;0.000;0.000;2022-08-06T02:02:13;3.77;;;3.57;;
14396;SDS011;50653;0.000;0.000;2022-08-06T02:04:46;3.37;;;3.17;;
14396;SDS011;50653;0.000;0.000;2022-08-06T02:07:16;3.43;;;3.33;;
14396;SDS011;50653;0.000;0.000;2022-08-06T02:09:47;3.70;;;3.40;;
14396;SDS011;50653;0.000;0.000;2022-08-06T02:12:17;4.83;;;4.27;;
14396;SDS011;50653;0.000;0.000;2022-08-06T02:14:49;6.97;;;6.53;;
14396;SDS011;50653;0.000;0.000;2022-08-06T02:17:18;4.30;;;3.80;;
14396;SDS011;50653;0.000;0.000;2022-08-06T02:19:49;3.57;;;3.37;;
14396;SDS011;50653;0.000;0.000;2022-08-06T02:22:16;3.60;;;3.50;;
14396;SDS011;50653;0.000;0.000;2022-08-06T02:24:44;3.30;;;3.20;;
14396;SDS011;50653;0.000;0.000;2022-08-06T02:27:11;3.30;;;3.10;;
14396;SDS011;50653;0.000;0.000;2022-08-06T02:29:40;3.60;;;3.40;;
14396;SDS011;50653;0.000;0.000;2022-08-06T02:32:07;3.23;;;3.13;;
14396;SDS011;50653;0.000;0.000;2022-08-06T02:34:33;3.77;;;3.40;;
14396;SDS011;50653;0.000;0.000;2022-08-06T02:37:06;3.30;;;3.20;;
14396;SDS011;50653;0.000;0.000;2022-08-06T02:39:40;3.50;;;3.40;;
14396;SDS011;50653;0.000;0.000;2022-08-06T02:44:45;3.40;;;3.20;;
14396;SDS011;50653;0.000;0.000;2022-08-06T02:47:21;3.20;;;3.00;;
14396;SDS011;50653;0.000;0.000;2022-08-06T02:50:01;4.00;;;3.80;;
14396;SDS011;50653;0.000;0.000;2022-08-06T02:55:02;3.53;;;3.43;;
14396;SDS011;50653;0.000;0.000;2022-08-06T02:57:36;3.87;;;3.67;;
14396;SDS011;50653;0.000;0.000;2022-08-06T03:00:06;4.00;;;3.80;;
14396;SDS011;50653;0.000;0.000;2022-08-06T03:02:38;3.87;;;3.77;;
14396;SDS011;50653;0.000;0.000;2022-08-06T03:05:06;4.83;;;3.83;;
14396;SDS011;50653;0.000;0.000;2022-08-06T03:07:34;4.13;;;3.90;;
14396;SDS011;50653;0.000;0.000;2022-08-06T03:10:04;4.20;;;4.00;;
14396;SDS011;50653;0.000;0.000;2022-08-06T03:12:31;4.63;;;4.37;;
14396;SDS011;50653;0.000;0.000;2022-08-06T03:14:58;4.33;;;4.03;;
14396;SDS011;50653;0.000;0.000;2022-08-06T03:17:27;4.00;;;3.70;;
14396;SDS011;50653;0.000;0.000;2022-08-06T03:19:54;4.03;;;3.90;;
14396;SDS011;50653;0.000;0.000;2022-08-06T03:22:21;4.37;;;4.07;;
14396;SDS011;50653;0.000;0.000;2022-08-06T03:24:50;4.93;;;4.57;;
14396;SDS011;50653;0.000;0.000;2022-08-06T03:27:17;5.93;;;5.50;;
14396;SDS011;50653;0.000;0.000;2022-08-06T03:29:44;5.83;;;5.53;;
14396;SDS011;50653;0.000;0.000;2022-08-06T03:32:11;4.80;;;4.60;;
14396;SDS011;50653;0.000;0.000;2022-08-06T03:34:38;4.40;;;4.10;;
14396;SDS011;50653;0.000;0.000;2022-08-06T03:37:04;3.93;;;3.80;;
14396;SDS011;50653;0.000;0.000;2022-08-06T03:39:32;4.40;;;3.00;;
14396;SDS011;50653;0.000;0.000;2022-08-06T03:41:59;4.40;;;4.20;;
14396;SDS011;50653;0.000;0.000;2022-08-06T03:44:24;3.97;;;3.77;;
14396;SDS011;50653;0.000;0.000;2022-08-06T03:46:55;4.13;;;3.90;;
14396;SDS011;50653;0.000;0.000;2022-08-06T03:49:45;4.00;;;3.70;;
14396;SDS011;50653;0.000;0.000;2022-08-06T03:52:18;3.23;;;3.13;;
14396;SDS011;50653;0.000;0.000;2022-08-06T03:54:48;3.77;;;3.60;;
14396;SDS011;50653;0.000;0.000;2022-08-06T03:57:18;4.47;;;3.40;;
14396;SDS011;50653;0.000;0.000;2022-08-06T03:59:48;4.13;;;3.93;;
14396;SDS011;50653;0.000;0.000;2022-08-06T04:02:16;4.03;;;3.73;;
14396;SDS011;50653;0.000;0.000;2022-08-06T04:04:43;4.13;;;3.83;;
14396;SDS011;50653;0.000;0.000;2022-08-06T04:07:10;4.30;;;4.10;;
14396;SDS011;50653;0.000;0.000;2022-08-06T04:09:39;21.33;;;19.30;;
14396;SDS011;50653;0.000;0.000;2022-08-06T04:12:06;4.70;;;4.50;;
14396;SDS011;50653;0.000;0.000;2022-08-06T04:14:33;4.83;;;4.10;;
14396;SDS011;50653;0.000;0.000;2022-08-06T04:17:00;4.47;;;4.27;;
14396;SDS011;50653;0.000;0.000;2022-08-06T04:19:29;4.10;;;3.90;;
14396;SDS011;50653;0.000;0.000;2022-08-06T04:21:56;16.50;;;4.90;;
14396;SDS011;50653;0.000;0.000;2022-08-06T04:24:22;9.50;;;8.90;;
14396;SDS011;50653;0.000;0.000;2022-08-06T04:26:48;4.20;;;3.90;;
14396;SDS011;50653;0.000;0.000;2022-08-06T04:29:18;6.73;;;6.43;;
14396;SDS011;50653;0.000;0.000;2022-08-06T04:31:46;4.57;;;4.37;;
14396;SDS011;50653;0.000;0.000;2022-08-06T04:34:15;3.23;;;3.13;;
14396;SDS011;50653;0.000;0.000;2022-08-06T04:36:46;4.07;;;3.77;;
14396;SDS011;50653;0.000;0.000;2022-08-06T04:39:12;5.83;;;4.10;;
14396;SDS011;50653;0.000;0.000;2022-08-06T04:41:39;3.70;;;3.50;;
14396;SDS011;50653;0.000;0.000;2022-08-06T04:44:05;8.60;;;4.00;;
14396;SDS011;50653;0.000;0.000;2022-08-06T04:46:32;4.70;;;4.40;;
14396;SDS011;50653;0.000;0.000;2022-08-06T04:48:58;5.97;;;5.60;;
14396;SDS011;50653;0.000;0.000;2022-08-06T04:51:24;5.90;;;5.70;;
14396;SDS011;50653;0.000;0.000;2022-08-06T04:53:50;6.30;;;5.80;;
14396;SDS011;50653;0.000;0.000;2022-08-06T04:56:15;5.90;;;5.70;;
14396;SDS011;50653;0.000;0.000;2022-08-06T04:58:41;6.37;;;6.03;;
14396;SDS011;50653;0.000;0.000;2022-08-06T05:01:07;9.03;;;8.43;;
14396;SDS011;50653;0.000;0.000;2022-08-06T05:03:33;10.00;;;9.00;;
14396;SDS011;50653;0.000;0.000;2022-08-06T05:06:00;9.53;;;8.93;;
14396;SDS011;50653;0.000;0.000;2022-08-06T05:08:42;10.20;;;9.70;;
14396;SDS011;50653;0.000;0.000;2022-08-06T05:11:12;10.17;;;9.47;;
14396;SDS011;50653;0.000;0.000;2022-08-06T05:13:43;7.40;;;7.00;;
14396;SDS011;50653;0.000;0.000;2022-08-06T05:16:11;7.80;;;7.33;;
14396;SDS011;50653;0.000;0.000;2022-08-06T05:18:46;7.27;;;6.97;;
14396;SDS011;50653;0.000;0.000;2022-08-06T05:21:27;7.30;;;7.00;;
14396;SDS011;50653;0.000;0.000;2022-08-06T05:23:55;6.67;;;6.33;;
14396;SDS011;50653;0.000;0.000;2022-08-06T05:26:22;7.80;;;7.30;;
14396;SDS011;50653;0.000;0.000;2022-08-06T05:28:48;7.40;;;6.50;;
14396;SDS011;50653;0.000;0.000;2022-08-06T05:31:14;5.40;;;5.20;;
14396;SDS011;50653;0.000;0.000;2022-08-06T05:33:40;5.80;;;5.50;;
14396;SDS011;50653;0.000;0.000;2022-08-06T05:36:10;4.60;;;4.27;;
14396;SDS011;50653;0.000;0.000;2022-08-06T05:38:37;5.47;;;5.10;;
14396;SDS011;50653;0.000;0.000;2022-08-06T05:41:06;4.83;;;4.53;;
14396;SDS011;50653;0.000;0.000;2022-08-06T05:43:34;4.53;;;4.30;;
14396;SDS011;50653;0.000;0.000;2022-08-06T05:46:11;4.60;;;3.97;;
14396;SDS011;50653;0.000;0.000;2022-08-06T05:48:41;5.07;;;4.83;;
14396;SDS011;50653;0.000;0.000;2022-08-06T05:51:17;3.67;;;3.47;;
14396;SDS011;50653;0.000;0.000;2022-08-06T05:53:59;3.00;;;2.80;;
14396;SDS011;50653;0.000;0.000;2022-08-06T05:56:30;3.10;;;3.00;;
14396;SDS011;50653;0.000;0.000;2022-08-06T05:59:02;3.07;;;2.87;;
14396;SDS011;50653;0.000;0.000;2022-08-06T06:01:30;2.10;;;2.00;;
14396;SDS011;50653;0.000;0.000;2022-08-06T06:03:57;3.83;;;2.70;;
14396;SDS011;50653;0.000;0.000;2022-08-06T06:06:24;2.93;;;2.53;;
14396;SDS011;50653;0.000;0.000;2022-08-06T06:08:50;2.87;;;2.77;;
14396;SDS011;50653;0.000;0.000;2022-08-06T06:11:17;3.53;;;2.83;;
14396;SDS011;50653;0.000;0.000;2022-08-06T06:13:43;3.23;;;2.90;;
14396;SDS011;50653;0.000;0.000;2022-08-06T06:16:12;2.60;;;2.43;;
14396;SDS011;50653;0.000;0.000;2022-08-06T06:21:45;2.90;;;2.80;;
14396;SDS011;50653;0.000;0.000;2022-08-06T06:24:52;2.97;;;2.77;;
14396;SDS011;50653;0.000;0.000;2022-08-06T06:30:19;2.20;;;2.10;;
14396;SDS011;50653;0.000;0.000;2022-08-06T06:32:53;3.03;;;2.80;;
14396;SDS011;50653;0.000;0.000;2022-08-06T06:35:34;2.90;;;2.60;;
14396;SDS011;50653;0.000;0.000;2022-08-06T06:43:49;2.03;;;1.93;;
14396;SDS011;50653;0.000;0.000;2022-08-06T06:46:20;2.47;;;2.27;;
14396;SDS011;50653;0.000;0.000;2022-08-06T06:48:56;4.37;;;2.93;;
14396;SDS011;50653;0.000;0.000;2022-08-06T06:54:35;2.33;;;2.23;;
14396;SDS011;50653;0.000;0.000;2022-08-06T06:57:06;2.30;;;2.20;;
14396;SDS011;50653;0.000;0.000;2022-08-06T06:59:36;2.97;;;2.70;;
14396;SDS011;50653;0.000;0.000;2022-08-06T07:02:08;3.37;;;3.17;;
14396;SDS011;50653;0.000;0.000;2022-08-06T07:04:41;3.97;;;3.20;;
14396;SDS011;50653;0.000;0.000;2022-08-06T07:07:08;2.50;;;2.40;;
14396;SDS011;50653;0.000;0.000;2022-08-06T07:09:36;3.07;;;2.60;;
14396;SDS011;50653;0.000;0.000;2022-08-06T07:12:02;3.70;;;3.43;;
14396;SDS011;50653;0.000;0.000;2022-08-06T07:14:30;2.70;;;2.60;;
14396;SDS011;50653;0.000;0.000;2022-08-06T07:16:59;6.90;;;4.63;;
14396;SDS011;50653;0.000;0.000;2022-08-06T07:19:26;3.70;;;3.40;;
14396;SDS011;50653;0.000;0.000;2022-08-06T07:21:52;4.67;;;4.37;;
14396;SDS011;50653;0.000;0.000;2022-08-06T07:24:20;5.30;;;3.70;;
14396;SDS011;50653;0.000;0.000;2022-08-06T07:26:48;3.20;;;3.10;;
14396;SDS011;50653;0.000;0.000;2022-08-06T07:29:17;2.70;;;2.60;;
14396;SDS011;50653;0.000;0.000;2022-08-06T07:31:44;2.67;;;2.53;;
14396;SDS011;50653;0.000;0.000;2022-08-06T07:34:12;2.50;;;2.40;;
14396;SDS011;50653;0.000;0.000;2022-08-06T07:36:41;3.20;;;2.97;;
14396;SDS011;50653;0.000;0.000;2022-08-06T07:39:13;3.03;;;2.93;;
14396;SDS011;50653;0.000;0.000;2022-08-06T07:41:46;3.10;;;2.90;;
14396;SDS011;50653;0.000;0.000;2022-08-06T07:44:14;3.13;;;2.80;;
14396;SDS011;50653;0.000;0.000;2022-08-06T07:46:43;3.43;;;3.23;;
14396;SDS011;50653;0.000;0.000;2022-08-06T07:49:13;3.20;;;2.90;;
14396;SDS011;50653;0.000;0.000;2022-08-06T07:51:42;3.13;;;3.03;;
14396;SDS011;50653;0.000;0.000;2022-08-06T07:54:09;2.47;;;2.37;;
14396;SDS011;50653;0.000;0.000;2022-08-06T07:56:37;3.63;;;3.10;;
14396;SDS011;50653;0.000;0.000;2022-08-06T07:59:05;3.33;;;3.07;;
14396;SDS011;50653;0.000;0.000;2022-08-06T08:01:33;3.63;;;3.33;;
14396;SDS011;50653;0.000;0.000;2022-08-06T08:04:00;3.47;;;3.27;;
14396;SDS011;50653;0.000;0.000;2022-08-06T08:06:45;2.97;;;2.87;;
14396;SDS011;50653;0.000;0.000;2022-08-06T08:09:17;2.60;;;2.50;;
14396;SDS011;50653;0.000;0.000;2022-08-06T08:11:46;2.83;;;2.73;;
14396;SDS011;50653;0.000;0.000;2022-08-06T08:14:16;2.83;;;2.73;;
14396;SDS011;50653;0.000;0.000;2022-08-06T08:16:44;2.93;;;2.83;;
14396;SDS011;50653;0.000;0.000;2022-08-06T08:19:24;2.93;;;2.73;;
14396;SDS011;50653;0.000;0.000;2022-08-06T08:21:58;2.87;;;2.77;;
14396;SDS011;50653;0.000;0.000;2022-08-06T08:24:25;2.77;;;2.57;;
14396;SDS011;50653;0.000;0.000;2022-08-06T08:26:52;3.40;;;3.20;;
14396;SDS011;50653;0.000;0.000;2022-08-06T08:29:18;3.93;;;3.83;;
14396;SDS011;50653;0.000;0.000;2022-08-06T08:31:44;3.17;;;3.00;;
14396;SDS011;50653;0.000;0.000;2022-08-06T08:34:10;2.60;;;2.50;;
14396;SDS011;50653;0.000;0.000;2022-08-06T08:36:39;3.20;;;3.00;;
14396;SDS011;50653;0.000;0.000;2022-08-06T08:39:05;2.83;;;2.63;;
14396;SDS011;50653;0.000;0.000;2022-08-06T08:41:33;2.40;;;2.20;;
14396;SDS011;50653;0.000;0.000;2022-08-06T08:44:11;3.63;;;3.47;;
14396;SDS011;50653;0.000;0.000;2022-08-06T08:46:40;3.10;;;2.80;;
14396;SDS011;50653;0.000;0.000;2022-08-06T08:49:11;5.13;;;2.10;;
14396;SDS011;50653;0.000;0.000;2022-08-06T08:51:43;3.13;;;2.93;;
14396;SDS011;50653;0.000;0.000;2022-08-06T08:54:13;2.80;;;2.60;;
14396;SDS011;50653;0.000;0.000;2022-08-06T08:56:40;2.33;;;2.23;;
14396;SDS011;50653;0.000;0.000;2022-08-06T08:59:07;2.10;;;2.00;;
14396;SDS011;50653;0.000;0.000;2022-08-06T09:01:33;2.53;;;2.43;;
14396;SDS011;50653;0.000;0.000;2022-08-06T09:04:03;4.30;;;3.80;;
14396;SDS011;50653;0.000;0.000;2022-08-06T09:06:30;2.50;;;2.30;;
14396;SDS011;50653;0.000;0.000;2022-08-06T09:08:58;2.30;;;2.20;;
14396;SDS011;50653;0.000;0.000;2022-08-06T09:11:29;3.03;;;2.83;;
14396;SDS011;50653;0.000;0.000;2022-08-06T09:13:56;3.83;;;3.60;;
14396;SDS011;50653;0.000;0.000;2022-08-06T09:16:25;7.77;;;7.07;;
14396;SDS011;50653;0.000;0.000;2022-08-06T09:18:51;8.37;;;7.57;;
14396;SDS011;50653;0.000;0.000;2022-08-06T09:21:18;9.50;;;8.90;;
14396;SDS011;50653;0.000;0.000;2022-08-06T09:23:44;9.65;;;8.85;;
14396;SDS011;50653;0.000;0.000;2022-08-06T09:26:09;10.37;;;9.33;;
14396;SDS011;50653;0.000;0.000;2022-08-06T09:28:36;9.70;;;8.87;;
14396;SDS011;50653;0.000;0.000;2022-08-06T09:33:34;10.97;;;10.07;;
14396;SDS011;50653;0.000;0.000;2022-08-06T09:36:03;15.43;;;14.20;;
14396;SDS011;50653;0.000;0.000;2022-08-06T09:38:29;11.00;;;10.20;;
14396;SDS011;50653;0.000;0.000;2022-08-06T09:41:05;10.33;;;9.53;;
14396;SDS011;50653;0.000;0.000;2022-08-06T09:43:35;14.67;;;11.70;;
14396;SDS011;50653;0.000;0.000;2022-08-06T09:46:01;10.83;;;9.93;;
14396;SDS011;50653;0.000;0.000;2022-08-06T09:48:27;10.87;;;9.57;;
14396;SDS011;50653;0.000;0.000;2022-08-06T09:50:53;12.03;;;11.00;;
14396;SDS011;50653;0.000;0.000;2022-08-06T09:53:18;10.63;;;10.00;;
14396;SDS011;50653;0.000;0.000;2022-08-06T09:55:46;11.73;;;10.83;;
14396;SDS011;50653;0.000;0.000;2022-08-06T09:58:13;10.57;;;9.50;;
14396;SDS011;50653;0.000;0.000;2022-08-06T10:00:39;10.60;;;9.57;;
14396;SDS011;50653;0.000;0.000;2022-08-06T10:03:05;11.37;;;9.87;;
14396;SDS011;50653;0.000;0.000;2022-08-06T10:05:34;14.70;;;13.60;;
14396;SDS011;50653;0.000;0.000;2022-08-06T10:08:10;17.63;;;16.10;;
14396;SDS011;50653;0.000;0.000;2022-08-06T10:10:40;18.87;;;17.20;;
14396;SDS011;50653;0.000;0.000;2022-08-06T10:13:15;20.60;;;19.00;;
14396;SDS011;50653;0.000;0.000;2022-08-06T10:15:43;16.73;;;15.27;;
14396;SDS011;50653;0.000;0.000;2022-08-06T10:18:32;18.73;;;16.90;;
14396;SDS011;50653;0.000;0.000;2022-08-06T10:21:01;19.93;;;18.30;;
14396;SDS011;50653;0.000;0.000;2022-08-06T10:23:29;21.00;;;19.20;;
14396;SDS011;50653;0.000;0.000;2022-08-06T10:25:57;22.23;;;20.53;;
14396;SDS011;50653;0.000;0.000;2022-08-06T10:28:23;22.23;;;20.53;;
14396;SDS011;50653;0.000;0.000;2022-08-06T10:30:52;21.27;;;19.27;;
14396;SDS011;50653;0.000;0.000;2022-08-06T10:33:18;20.77;;;18.93;;
14396;SDS011;50653;0.000;0.000;2022-08-06T10:35:47;22.57;;;20.47;;
14396;SDS011;50653;0.000;0.000;2022-08-06T10:38:16;20.63;;;18.40;;
14396;SDS011;50653;0.000;0.000;2022-08-06T10:40:45;20.20;;;18.30;;
14396;SDS011;50653;0.000;0.000;2022-08-06T10:43:16;16.10;;;14.80;;
14396;SDS011;50653;0.000;0.000;2022-08-06T10:45:43;17.07;;;15.77;;
14396;SDS011;50653;0.000;0.000;2022-08-06T10:48:09;16.20;;;15.10;;
14396;SDS011;50653;0.000;0.000;2022-08-06T10:50:37;15.87;;;14.60;;
14396;SDS011;50653;0.000;0.000;2022-08-06T10:53:03;15.10;;;13.93;;
14396;SDS011;50653;0.000;0.000;2022-08-06T10:55:30;14.77;;;13.60;;
14396;SDS011;50653;0.000;0.000;2022-08-06T10:57:56;16.03;;;14.43;;
14396;SDS011;50653;0.000;0.000;2022-08-06T11:00:23;14.30;;;13.10;;
14396;SDS011;50653;0.000;0.000;2022-08-06T11:05:22;14.07;;;12.93;;
14396;SDS011;50653;0.000;0.000;2022-08-06T11:13:46;19.00;;;17.50;;
14396;SDS011;50653;0.000;0.000;2022-08-06T11:16:23;18.50;;;17.03;;
14396;SDS011;50653;0.000;0.000;2022-08-06T11:19:04;18.63;;;17.07;;
14396;SDS011;50653;0.000;0.000;2022-08-06T11:21:35;16.33;;;15.17;;
14396;SDS011;50653;0.000;0.000;2022-08-06T11:24:04;14.40;;;13.33;;
14396;SDS011;50653;0.000;0.000;2022-08-06T11:26:31;14.50;;;13.40;;
14396;SDS011;50653;0.000;0.000;2022-08-06T11:28:59;21.50;;;16.33;;
14396;SDS011;50653;0.000;0.000;2022-08-06T11:31:33;15.50;;;14.37;;
14396;SDS011;50653;0.000;0.000;2022-08-06T11:34:04;19.07;;;17.27;;
14396;SDS011;50653;0.000;0.000;2022-08-06T11:39:14;25.60;;;17.60;;
14396;SDS011;50653;0.000;0.000;2022-08-06T11:41:44;20.70;;;18.73;;
14396;SDS011;50653;0.000;0.000;2022-08-06T11:44:12;20.53;;;18.73;;
14396;SDS011;50653;0.000;0.000;2022-08-06T11:46:42;22.27;;;19.40;;
14396;SDS011;50653;0.000;0.000;2022-08-06T11:49:20;18.63;;;17.07;;
14396;SDS011;50653;0.000;0.000;2022-08-06T11:51:59;17.57;;;16.07;;
14396;SDS011;50653;0.000;0.000;2022-08-06T11:54:27;15.90;;;14.50;;
14396;SDS011;50653;0.000;0.000;2022-08-06T11:59:34;11.90;;;11.10;;
14396;SDS011;50653;0.000;0.000;2022-08-06T12:02:13;11.60;;;10.80;;
14396;SDS011;50653;0.000;0.000;2022-08-06T12:04:41;9.77;;;9.17;;
14396;SDS011;50653;0.000;0.000;2022-08-06T12:09:44;8.70;;;8.17;;
14396;SDS011;50653;0.000;0.000;2022-08-06T12:14:49;11.30;;;10.60;;
14396;SDS011;50653;0.000;0.000;2022-08-06T12:17:15;9.90;;;9.20;;
14396;SDS011;50653;0.000;0.000;2022-08-06T12:19:45;10.43;;;9.73;;
14396;SDS011;50653;0.000;0.000;2022-08-06T12:22:13;12.57;;;11.57;;
14396;SDS011;50653;0.000;0.000;2022-08-06T12:24:41;11.97;;;11.07;;
14396;SDS011;50653;0.000;0.000;2022-08-06T12:27:08;11.70;;;10.90;;
14396;SDS011;50653;0.000;0.000;2022-08-06T12:29:36;12.17;;;11.10;;
14396;SDS011;50653;0.000;0.000;2022-08-06T12:32:18;12.20;;;11.30;;
14396;SDS011;50653;0.000;0.000;2022-08-06T12:34:59;10.87;;;10.17;;
14396;SDS011;50653;0.000;0.000;2022-08-06T12:37:38;11.90;;;11.00;;
14396;SDS011;50653;0.000;0.000;2022-08-06T12:40:09;10.33;;;9.63;;
14396;SDS011;50653;0.000;0.000;2022-08-06T12:45:26;11.27;;;10.27;;
14396;SDS011;50653;0.000;0.000;2022-08-06T12:47:56;10.20;;;9.70;;
14396;SDS011;50653;0.000;0.000;2022-08-06T12:50:27;11.20;;;10.50;;
14396;SDS011;50653;0.000;0.000;2022-08-06T12:55:29;10.10;;;9.40;;
14396;SDS011;50653;0.000;0.000;2022-08-06T12:57:56;10.67;;;9.90;;
14396;SDS011;50653;0.000;0.000;2022-08-06T13:00:24;10.10;;;9.50;;
14396;SDS011;50653;0.000;0.000;2022-08-06T13:02:50;7.40;;;7.00;;
14396;SDS011;50653;0.000;0.000;2022-08-06T13:05:17;8.73;;;8.13;;
14396;SDS011;50653;0.000;0.000;2022-08-06T13:07:43;10.23;;;9.60;;
14396;SDS011;50653;0.000;0.000;2022-08-06T13:10:12;8.53;;;7.93;;
14396;SDS011;50653;0.000;0.000;2022-08-06T13:12:38;7.33;;;7.00;;
14396;SDS011;50653;0.000;0.000;2022-08-06T13:15:12;8.77;;;8.17;;
14396;SDS011;50653;0.000;0.000;2022-08-06T13:17:39;8.57;;;7.97;;
14396;SDS011;50653;0.000;0.000;2022-08-06T13:20:05;8.80;;;8.30;;
14396;SDS011;50653;0.000;0.000;2022-08-06T13:22:47;8.60;;;8.10;;
14396;SDS011;50653;0.000;0.000;2022-08-06T13:25:14;8.30;;;7.90;;
14396;SDS011;50653;0.000;0.000;2022-08-06T13:27:44;7.87;;;7.20;;
14396;SDS011;50653;0.000;0.000;2022-08-06T13:30:10;6.73;;;6.43;;
14396;SDS011;50653;0.000;0.000;2022-08-06T13:32:37;5.20;;;5.00;;
14396;SDS011;50653;0.000;0.000;2022-08-06T13:35:07;6.73;;;6.43;;
14396;SDS011;50653;0.000;0.000;2022-08-06T13:37:46;5.47;;;4.97;;
14396;SDS011;50653;0.000;0.000;2022-08-06T13:40:16;6.10;;;5.80;;
14396;SDS011;50653;0.000;0.000;2022-08-06T13:42:49;4.67;;;4.47;;
14396;SDS011;50653;0.000;0.000;2022-08-06T13:45:25;5.53;;;5.23;;
14396;SDS011;50653;0.000;0.000;2022-08-06T13:50:34;5.53;;;5.23;;
14396;SDS011;50653;0.000;0.000;2022-08-06T13:53:02;6.00;;;5.70;;
14396;SDS011;50653;0.000;0.000;2022-08-06T13:55:28;6.70;;;6.40;;
14396;SDS011;50653;0.000;0.000;2022-08-06T13:57:55;7.13;;;6.77;;
14396;SDS011;50653;0.000;0.000;2022-08-06T14:00:22;8.47;;;7.87;;
14396;SDS011;50653;0.000;0.000;2022-08-06T14:02:48;6.77;;;6.43;;
14396;SDS011;50653;0.000;0.000;2022-08-06T14:05:14;7.10;;;6.70;;
14396;SDS011;50653;0.000;0.000;2022-08-06T14:07:40;6.87;;;6.47;;
14396;SDS011;50653;0.000;0.000;2022-08-06T14:10:06;6.80;;;6.47;;
14396;SDS011;50653;0.000;0.000;2022-08-06T14:12:32;6.77;;;6.47;;
14396;SDS011;50653;0.000;0.000;2022-08-06T14:14:58;5.97;;;5.67;;
14396;SDS011;50653;0.000;0.000;2022-08-06T14:17:25;5.93;;;5.63;;
14396;SDS011;50653;0.000;0.000;2022-08-06T14:19:51;7.93;;;7.53;;
14396;SDS011;50653;0.000;0.000;2022-08-06T14:22:17;8.27;;;7.77;;
14396;SDS011;50653;0.000;0.000;2022-08-06T14:24:42;7.30;;;6.90;;
14396;SDS011;50653;0.000;0.000;2022-08-06T14:27:09;6.73;;;6.33;;
14396;SDS011;50653;0.000;0.000;2022-08-06T14:29:36;6.20;;;5.90;;
14396;SDS011;50653;0.000;0.000;2022-08-06T14:32:03;11.43;;;10.50;;
14396;SDS011;50653;0.000;0.000;2022-08-06T14:34:29;7.17;;;6.77;;
14396;SDS011;50653;0.000;0.000;2022-08-06T14:36:56;7.67;;;7.17;;
14396;SDS011;50653;0.000;0.000;2022-08-06T14:39:22;7.20;;;6.80;;
14396;SDS011;50653;0.000;0.000;2022-08-06T14:41:48;6.10;;;5.80;;
14396;SDS011;50653;0.000;0.000;2022-08-06T14:44:32;6.70;;;6.30;;
14396;SDS011;50653;0.000;0.000;2022-08-06T14:47:16;5.10;;;4.90;;
14396;SDS011;50653;0.000;0.000;2022-08-06T14:49:42;4.40;;;4.20;;
14396;SDS011;50653;0.000;0.000;2022-08-06T14:52:08;4.53;;;4.33;;
14396;SDS011;50653;0.000;0.000;2022-08-06T14:54:34;5.60;;;5.30;;
14396;SDS011;50653;0.000;0.000;2022-08-06T14:57:05;5.23;;;4.80;;
14396;SDS011;50653;0.000;0.000;2022-08-06T14:59:32;5.20;;;5.00;;
14396;SDS011;50653;0.000;0.000;2022-08-06T15:01:57;5.10;;;4.90;;
14396;SDS011;50653;0.000;0.000;2022-08-06T15:04:23;5.63;;;5.23;;
14396;SDS011;50653;0.000;0.000;2022-08-06T15:06:49;4.77;;;4.57;;
14396;SDS011;50653;0.000;0.000;2022-08-06T15:09:16;5.77;;;5.47;;
14396;SDS011;50653;0.000;0.000;2022-08-06T15:11:42;5.67;;;5.43;;
14396;SDS011;50653;0.000;0.000;2022-08-06T15:14:08;6.50;;;6.00;;
14396;SDS011;50653;0.000;0.000;2022-08-06T15:16:33;5.43;;;4.93;;
14396;SDS011;50653;0.000;0.000;2022-08-06T15:18:59;5.70;;;5.40;;
14396;SDS011;50653;0.000;0.000;2022-08-06T15:21:25;7.07;;;6.77;;
14396;SDS011;50653;0.000;0.000;2022-08-06T15:23:51;5.73;;;5.43;;
14396;SDS011;50653;0.000;0.000;2022-08-06T15:26:19;5.77;;;5.37;;
14396;SDS011;50653;0.000;0.000;2022-08-06T15:28:45;6.17;;;5.77;;
14396;SDS011;50653;0.000;0.000;2022-08-06T15:31:11;4.93;;;4.73;;
14396;SDS011;50653;0.000;0.000;2022-08-06T15:33:36;3.27;;;3.17;;
14396;SDS011;50653;0.000;0.000;2022-08-06T15:36:03;3.07;;;2.87;;
14396;SDS011;50653;0.000;0.000;2022-08-06T15:38:29;3.83;;;3.63;;
14396;SDS011;50653;0.000;0.000;2022-08-06T15:40:55;3.80;;;3.70;;
14396;SDS011;50653;0.000;0.000;2022-08-06T15:43:21;4.73;;;4.53;;
14396;SDS011;50653;0.000;0.000;2022-08-06T15:45:51;5.10;;;4.90;;
14396;SDS011;50653;0.000;0.000;2022-08-06T15:48:18;4.50;;;4.30;;
14396;SDS011;50653;0.000;0.000;2022-08-06T15:50:45;4.47;;;4.30;;
14396;SDS011;50653;0.000;0.000;2022-08-06T15:53:12;4.93;;;4.73;;
14396;SDS011;50653;0.000;0.000;2022-08-06T15:55:38;4.83;;;4.63;;
14396;SDS011;50653;0.000;0.000;2022-08-06T15:58:04;5.57;;;5.20;;
14396;SDS011;50653;0.000;0.000;2022-08-06T16:00:30;6.73;;;6.43;;
14396;SDS011;50653;0.000;0.000;2022-08-06T16:02:59;6.30;;;6.10;;
14396;SDS011;50653;0.000;0.000;2022-08-06T16:05:25;5.67;;;5.47;;